sensor_id;sensor_type;location;lat;lon;timestamp;pressure;altitude;pressure_sealevel;temperature;humidity
3697;BME280;60662;48.810;8.872;2023-09-30T07:05:15;97568.94;;;15.03;89.37
3697;BME280;60662;48.810;8.872;2023-09-30T07:06:25;97571.44;;;15.43;87.62
3697;BME280;60662;48.810;8.872;2023-09-30T07:07:28;97580.84;;;15.83;85.75
3697;BME280;60662;48.810;8.872;2023-09-30T07:08:30;97574.94;;;16.29;84.19
3697;BME280;60662;48.810;8.872;2023-09-30T07:09:31;97570.56;;;16.46;83.05
3697;BME280;60662;48.810;8.872;2023-09-30T07:10:32;97579.16;;;16.65;81.94
3697;BME280;60662;48.810;8.872;2023-09-30T07:11:34;97580.94;;;16.65;81.74
3697;BME280;60662;48.810;8.872;2023-09-30T07:12:35;97569.13;;;16.56;81.72
3697;BME280;60662;48.810;8.872;2023-09-30T07:13:38;97573.72;;;16.69;81.77
3697;BME280;60662;48.810;8.872;2023-09-30T07:14:39;97563.69;;;17.07;80.50
3697;BME280;60662;48.810;8.872;2023-09-30T07:15:40;97580.03;;;17.30;79.08
3697;BME280;60662;48.810;8.872;2023-09-30T07:16:42;97588.31;;;17.54;77.81
3697;BME280;60662;48.810;8.872;2023-09-30T07:17:44;97589.78;;;17.44;77.88
3697;BME280;60662;48.810;8.872;2023-09-30T07:18:47;97589.69;;;17.45;78.35
3697;BME280;60662;48.810;8.872;2023-09-30T07:19:49;97593.22;;;17.76;77.63
3697;BME280;60662;48.810;8.872;2023-09-30T07:20:51;97597.34;;;17.66;77.46
3697;BME280;60662;48.810;8.872;2023-09-30T07:21:53;97587.28;;;17.57;77.45
3697;BME280;60662;48.810;8.872;2023-09-30T07:23:05;97596.81;;;16.97;78.91
3697;BME280;60662;48.810;8.872;2023-09-30T07:24:19;97600.63;;;17.07;79.59
3697;BME280;60662;48.810;8.872;2023-09-30T07:25:21;97608.75;;;17.51;78.40
3697;BME280;60662;48.810;8.872;2023-09-30T07:26:24;97609.53;;;18.14;76.33
3697;BME280;60662;48.810;8.872;2023-09-30T07:27:26;97613.19;;;17.97;76.56
3697;BME280;60662;48.810;8.872;2023-09-30T07:28:29;97617.03;;;18.50;75.29
3697;BME280;60662;48.810;8.872;2023-09-30T07:29:30;97612.28;;;18.84;73.48
3697;BME280;60662;48.810;8.872;2023-09-30T07:30:32;97605.78;;;18.32;73.71
3697;BME280;60662;48.810;8.872;2023-09-30T07:31:35;97607.84;;;18.85;73.45
3697;BME280;60662;48.810;8.872;2023-09-30T07:32:37;97600.81;;;19.40;71.97
3697;BME280;60662;48.810;8.872;2023-09-30T07:33:38;97602.53;;;19.81;70.75
3697;BME280;60662;48.810;8.872;2023-09-30T07:34:41;97603.13;;;19.99;70.25
3697;BME280;60662;48.810;8.872;2023-09-30T07:35:45;97606.47;;;19.48;70.53
3697;BME280;60662;48.810;8.872;2023-09-30T07:36:46;97608.00;;;19.65;70.45
3697;BME280;60662;48.810;8.872;2023-09-30T07:37:48;97610.66;;;19.65;70.19
3697;BME280;60662;48.810;8.872;2023-09-30T07:38:53;97610.63;;;19.52;70.94
3697;BME280;60662;48.810;8.872;2023-09-30T07:39:55;97617.84;;;19.90;69.62
3697;BME280;60662;48.810;8.872;2023-09-30T07:40:57;97615.84;;;19.12;71.49
3697;BME280;60662;48.810;8.872;2023-09-30T07:41:58;97619.94;;;19.03;71.59
3697;BME280;60662;48.810;8.872;2023-09-30T07:43:00;97620.03;;;19.02;71.91
3697;BME280;60662;48.810;8.872;2023-09-30T07:44:01;97623.44;;;18.46;73.52
3697;BME280;60662;48.810;8.872;2023-09-30T07:45:05;97610.41;;;18.57;73.62
3697;BME280;60662;48.810;8.872;2023-09-30T07:46:06;97621.47;;;18.50;74.05
3697;BME280;60662;48.810;8.872;2023-09-30T07:47:08;97621.28;;;18.53;73.72
3697;BME280;60662;48.810;8.872;2023-09-30T07:48:10;97619.88;;;18.62;73.43
3697;BME280;60662;48.810;8.872;2023-09-30T07:49:12;97625.34;;;18.44;73.57
3697;BME280;60662;48.810;8.872;2023-09-30T07:50:13;97627.59;;;18.36;74.41
3697;BME280;60662;48.810;8.872;2023-09-30T07:51:15;97623.19;;;18.65;73.33
3697;BME280;60662;48.810;8.872;2023-09-30T07:52:16;97634.31;;;18.56;73.69
3697;BME280;60662;48.810;8.872;2023-09-30T07:53:18;97633.97;;;18.03;74.72
3697;BME280;60662;48.810;8.872;2023-09-30T07:54:19;97629.91;;;18.11;75.48
3697;BME280;60662;48.810;8.872;2023-09-30T07:55:24;97633.25;;;18.30;74.99
3697;BME280;60662;48.810;8.872;2023-09-30T07:56:25;97633.06;;;18.18;75.21
3697;BME280;60662;48.810;8.872;2023-09-30T07:57:27;97627.41;;;17.94;75.79
3697;BME280;60662;48.810;8.872;2023-09-30T07:58:29;97625.03;;;18.34;74.84
3697;BME280;60662;48.810;8.872;2023-09-30T07:59:30;97624.34;;;17.55;75.85
3697;BME280;60662;48.810;8.872;2023-09-30T08:00:32;97626.19;;;17.69;76.46
3697;BME280;60662;48.810;8.872;2023-09-30T08:01:35;97629.56;;;18.18;75.30
3697;BME280;60662;48.810;8.872;2023-09-30T08:02:37;97625.91;;;18.49;74.57
3697;BME280;60662;48.810;8.872;2023-09-30T08:03:39;97615.25;;;18.65;73.58
3697;BME280;60662;48.810;8.872;2023-09-30T08:04:41;97611.44;;;18.84;72.71
3697;BME280;60662;48.810;8.872;2023-09-30T08:05:43;97610.69;;;18.38;73.89
3697;BME280;60662;48.810;8.872;2023-09-30T08:06:44;97610.59;;;18.69;73.28
3697;BME280;60662;48.810;8.872;2023-09-30T08:07:46;97605.78;;;18.90;72.83
3697;BME280;60662;48.810;8.872;2023-09-30T08:08:48;97606.78;;;19.16;71.23
3697;BME280;60662;48.810;8.872;2023-09-30T08:09:49;97608.72;;;19.27;70.71
3697;BME280;60662;48.810;8.872;2023-09-30T08:10:51;97612.69;;;19.74;69.67
3697;BME280;60662;48.810;8.872;2023-09-30T08:11:56;97604.41;;;19.66;69.65
3697;BME280;60662;48.810;8.872;2023-09-30T08:12:58;97613.97;;;20.35;68.10
3697;BME280;60662;48.810;8.872;2023-09-30T08:14:04;97609.59;;;20.60;66.70
3697;BME280;60662;48.810;8.872;2023-09-30T08:15:10;97611.09;;;20.64;66.56
3697;BME280;60662;48.810;8.872;2023-09-30T08:16:14;97610.88;;;20.41;66.90
3697;BME280;60662;48.810;8.872;2023-09-30T08:17:17;97610.78;;;20.81;66.13
3697;BME280;60662;48.810;8.872;2023-09-30T08:18:19;97602.56;;;21.21;64.89
3697;BME280;60662;48.810;8.872;2023-09-30T08:19:20;97616.75;;;21.71;63.58
3697;BME280;60662;48.810;8.872;2023-09-30T08:20:22;97614.44;;;21.53;63.80
3697;BME280;60662;48.810;8.872;2023-09-30T08:21:24;97613.16;;;21.83;63.09
3697;BME280;60662;48.810;8.872;2023-09-30T08:22:25;97619.38;;;22.64;60.20
3697;BME280;60662;48.810;8.872;2023-09-30T08:23:30;97618.22;;;23.46;57.09
3697;BME280;60662;48.810;8.872;2023-09-30T08:24:32;97608.13;;;22.72;57.39
3697;BME280;60662;48.810;8.872;2023-09-30T08:25:33;97617.56;;;22.07;58.59
3697;BME280;60662;48.810;8.872;2023-09-30T08:26:35;97617.34;;;20.76;60.66
3697;BME280;60662;48.810;8.872;2023-09-30T08:27:37;97620.28;;;19.12;66.31
3697;BME280;60662;48.810;8.872;2023-09-30T08:28:40;97615.72;;;19.83;66.21
3697;BME280;60662;48.810;8.872;2023-09-30T08:29:41;97617.78;;;20.82;64.27
3697;BME280;60662;48.810;8.872;2023-09-30T08:30:43;97622.34;;;21.90;61.96
3697;BME280;60662;48.810;8.872;2023-09-30T08:31:44;97616.28;;;21.77;61.30
3697;BME280;60662;48.810;8.872;2023-09-30T08:32:46;97621.72;;;21.75;61.16
3697;BME280;60662;48.810;8.872;2023-09-30T08:33:48;97625.38;;;21.85;60.37
3697;BME280;60662;48.810;8.872;2023-09-30T08:34:50;97629.44;;;21.30;61.03
3697;BME280;60662;48.810;8.872;2023-09-30T08:35:51;97615.13;;;21.92;60.55
3697;BME280;60662;48.810;8.872;2023-09-30T08:36:52;97614.28;;;22.73;58.73
3697;BME280;60662;48.810;8.872;2023-09-30T08:37:54;97604.22;;;23.22;57.75
3697;BME280;60662;48.810;8.872;2023-09-30T08:38:56;97606.53;;;23.26;57.17
3697;BME280;60662;48.810;8.872;2023-09-30T08:39:58;97603.22;;;23.67;56.11
3697;BME280;60662;48.810;8.872;2023-09-30T08:41:00;97599.00;;;23.96;55.71
3697;BME280;60662;48.810;8.872;2023-09-30T08:42:08;97609.34;;;24.32;55.12
3697;BME280;60662;48.810;8.872;2023-09-30T08:43:11;97597.25;;;24.28;54.59
3697;BME280;60662;48.810;8.872;2023-09-30T08:44:13;97598.19;;;24.48;54.25
3697;BME280;60662;48.810;8.872;2023-09-30T08:45:16;97617.13;;;24.66;54.10
3697;BME280;60662;48.810;8.872;2023-09-30T08:46:19;97610.81;;;24.67;54.12
3697;BME280;60662;48.810;8.872;2023-09-30T08:47:20;97612.88;;;24.11;55.55
3697;BME280;60662;48.810;8.872;2023-09-30T08:48:23;97606.56;;;23.47;57.15
3697;BME280;60662;48.810;8.872;2023-09-30T08:49:27;97610.91;;;22.71;58.22
3697;BME280;60662;48.810;8.872;2023-09-30T08:50:29;97611.13;;;22.33;59.20
3697;BME280;60662;48.810;8.872;2023-09-30T08:51:32;97600.97;;;21.32;61.44
3697;BME280;60662;48.810;8.872;2023-09-30T08:52:44;97604.94;;;19.71;65.76
3697;BME280;60662;48.810;8.872;2023-09-30T08:53:46;97609.25;;;19.60;66.47
3697;BME280;60662;48.810;8.872;2023-09-30T08:54:48;97592.50;;;19.04;68.24
3697;BME280;60662;48.810;8.872;2023-09-30T08:55:54;97601.53;;;19.29;67.80
3697;BME280;60662;48.810;8.872;2023-09-30T08:56:57;97603.09;;;19.04;68.26
3697;BME280;60662;48.810;8.872;2023-09-30T08:57:59;97604.47;;;18.97;69.26
3697;BME280;60662;48.810;8.872;2023-09-30T08:59:03;97594.34;;;18.75;69.60
3697;BME280;60662;48.810;8.872;2023-09-30T09:00:07;97588.19;;;18.60;70.19
3697;BME280;60662;48.810;8.872;2023-09-30T09:01:13;97594.44;;;18.44;70.98
3697;BME280;60662;48.810;8.872;2023-09-30T09:02:14;97593.22;;;18.50;70.45
3697;BME280;60662;48.810;8.872;2023-09-30T09:03:18;97593.03;;;18.53;70.61
3697;BME280;60662;48.810;8.872;2023-09-30T09:04:20;97593.72;;;18.42;71.18
3697;BME280;60662;48.810;8.872;2023-09-30T09:05:22;97605.19;;;18.13;71.77
3697;BME280;60662;48.810;8.872;2023-09-30T09:06:25;97609.84;;;17.93;72.61
3697;BME280;60662;48.810;8.872;2023-09-30T09:07:27;97602.94;;;18.50;71.81
3697;BME280;60662;48.810;8.872;2023-09-30T09:08:28;97607.84;;;18.85;70.42
3697;BME280;60662;48.810;8.872;2023-09-30T09:09:30;97617.31;;;19.98;66.90
3697;BME280;60662;48.810;8.872;2023-09-30T09:10:31;97614.81;;;20.74;65.05
3697;BME280;60662;48.810;8.872;2023-09-30T09:11:37;97611.38;;;20.98;63.60
3697;BME280;60662;48.810;8.872;2023-09-30T09:12:39;97615.41;;;20.91;63.75
3697;BME280;60662;48.810;8.872;2023-09-30T09:13:48;97618.94;;;20.39;65.06
3697;BME280;60662;48.810;8.872;2023-09-30T09:14:50;97622.63;;;19.58;66.79
3697;BME280;60662;48.810;8.872;2023-09-30T09:16:08;97619.09;;;19.57;67.63
3697;BME280;60662;48.810;8.872;2023-09-30T09:17:10;97627.72;;;19.74;66.89
3697;BME280;60662;48.810;8.872;2023-09-30T09:18:14;97627.00;;;20.25;65.60
3697;BME280;60662;48.810;8.872;2023-09-30T09:19:31;97621.13;;;19.94;66.59
3697;BME280;60662;48.810;8.872;2023-09-30T09:20:33;97619.78;;;20.27;65.49
3697;BME280;60662;48.810;8.872;2023-09-30T09:21:35;97612.03;;;20.11;65.84
3697;BME280;60662;48.810;8.872;2023-09-30T09:22:41;97614.38;;;19.35;67.79
3697;BME280;60662;48.810;8.872;2023-09-30T09:23:45;97613.84;;;19.16;68.96
3697;BME280;60662;48.810;8.872;2023-09-30T09:24:47;97612.59;;;19.49;68.70
3697;BME280;60662;48.810;8.872;2023-09-30T09:25:53;97620.59;;;19.89;67.42
3697;BME280;60662;48.810;8.872;2023-09-30T09:27:09;97625.41;;;21.61;63.24
3697;BME280;60662;48.810;8.872;2023-09-30T09:28:16;97619.25;;;22.43;60.92
3697;BME280;60662;48.810;8.872;2023-09-30T09:29:25;97616.22;;;23.27;58.85
3697;BME280;60662;48.810;8.872;2023-09-30T09:30:27;97620.94;;;23.24;57.94
3697;BME280;60662;48.810;8.872;2023-09-30T09:31:31;97615.72;;;23.22;57.92
3697;BME280;60662;48.810;8.872;2023-09-30T09:32:32;97618.47;;;23.43;57.52
3697;BME280;60662;48.810;8.872;2023-09-30T09:33:36;97608.94;;;23.94;56.34
3697;BME280;60662;48.810;8.872;2023-09-30T09:34:39;97608.69;;;24.19;55.88
3697;BME280;60662;48.810;8.872;2023-09-30T09:35:47;97609.91;;;23.17;57.53
3697;BME280;60662;48.810;8.872;2023-09-30T09:36:49;97606.91;;;22.99;58.46
3697;BME280;60662;48.810;8.872;2023-09-30T09:38:06;97603.75;;;24.14;55.86
3697;BME280;60662;48.810;8.872;2023-09-30T09:39:08;97603.34;;;24.19;55.74
3697;BME280;60662;48.810;8.872;2023-09-30T09:40:10;97600.69;;;23.65;56.60
3697;BME280;60662;48.810;8.872;2023-09-30T09:41:15;97604.09;;;23.23;56.88
3697;BME280;60662;48.810;8.872;2023-09-30T09:42:33;97600.44;;;23.36;57.50
3697;BME280;60662;48.810;8.872;2023-09-30T09:43:41;97594.97;;;22.01;59.83
3697;BME280;60662;48.810;8.872;2023-09-30T09:44:44;97596.94;;;21.50;62.26
3697;BME280;60662;48.810;8.872;2023-09-30T09:45:46;97594.88;;;21.06;62.87
3697;BME280;60662;48.810;8.872;2023-09-30T09:46:48;97599.00;;;20.73;63.65
3697;BME280;60662;48.810;8.872;2023-09-30T09:47:53;97592.94;;;20.70;64.35
3697;BME280;60662;48.810;8.872;2023-09-30T09:48:55;97594.66;;;20.33;64.95
3697;BME280;60662;48.810;8.872;2023-09-30T09:49:59;97599.97;;;20.71;64.50
3697;BME280;60662;48.810;8.872;2023-09-30T09:51:01;97595.22;;;21.74;61.86
3697;BME280;60662;48.810;8.872;2023-09-30T09:52:03;97589.16;;;22.65;59.72
3697;BME280;60662;48.810;8.872;2023-09-30T09:53:05;97597.81;;;23.24;57.38
3697;BME280;60662;48.810;8.872;2023-09-30T09:54:07;97596.97;;;23.89;55.65
3697;BME280;60662;48.810;8.872;2023-09-30T09:55:12;97590.97;;;23.43;55.51
3697;BME280;60662;48.810;8.872;2023-09-30T09:56:16;97597.22;;;22.87;57.00
3697;BME280;60662;48.810;8.872;2023-09-30T09:57:18;97598.84;;;22.66;57.78
3697;BME280;60662;48.810;8.872;2023-09-30T09:58:21;97599.41;;;21.89;59.95
3697;BME280;60662;48.810;8.872;2023-09-30T09:59:23;97594.56;;;21.34;61.29
3697;BME280;60662;48.810;8.872;2023-09-30T10:00:26;97598.66;;;20.77;63.43
3697;BME280;60662;48.810;8.872;2023-09-30T10:01:28;97595.69;;;20.04;64.89
3697;BME280;60662;48.810;8.872;2023-09-30T10:02:30;97602.94;;;19.75;65.43
3697;BME280;60662;48.810;8.872;2023-09-30T10:03:32;97592.75;;;19.96;65.76
3697;BME280;60662;48.810;8.872;2023-09-30T10:04:34;97595.94;;;20.01;64.07
3697;BME280;60662;48.810;8.872;2023-09-30T10:05:38;97592.00;;;20.20;63.97
3697;BME280;60662;48.810;8.872;2023-09-30T10:06:43;97581.69;;;19.22;67.18
3697;BME280;60662;48.810;8.872;2023-09-30T10:07:56;97583.56;;;18.78;68.58
3697;BME280;60662;48.810;8.872;2023-09-30T10:08:59;97590.47;;;18.23;70.75
3697;BME280;60662;48.810;8.872;2023-09-30T10:10:02;97587.47;;;19.14;68.85
3697;BME280;60662;48.810;8.872;2023-09-30T10:11:07;97588.78;;;19.49;67.86
3697;BME280;60662;48.810;8.872;2023-09-30T10:12:10;97586.69;;;20.59;64.70
3697;BME280;60662;48.810;8.872;2023-09-30T10:14:52;97576.31;;;21.90;61.57
3697;BME280;60662;48.810;8.872;2023-09-30T10:15:53;97580.31;;;21.84;61.71
3697;BME280;60662;48.810;8.872;2023-09-30T10:16:56;97574.97;;;22.42;59.93
3697;BME280;60662;48.810;8.872;2023-09-30T10:18:11;97574.88;;;22.55;57.35
3697;BME280;60662;48.810;8.872;2023-09-30T10:19:18;97575.06;;;23.20;56.61
3697;BME280;60662;48.810;8.872;2023-09-30T10:20:27;97577.22;;;23.91;55.46
3697;BME280;60662;48.810;8.872;2023-09-30T10:21:29;97576.28;;;24.23;54.41
3697;BME280;60662;48.810;8.872;2023-09-30T10:22:30;97575.88;;;23.86;55.26
3697;BME280;60662;48.810;8.872;2023-09-30T10:23:32;97570.72;;;24.36;52.52
3697;BME280;60662;48.810;8.872;2023-09-30T10:24:37;97578.88;;;24.97;51.69
3697;BME280;60662;48.810;8.872;2023-09-30T10:25:38;97576.28;;;25.85;50.29
3697;BME280;60662;48.810;8.872;2023-09-30T10:28:34;97581.72;;;25.15;49.61
3697;BME280;60662;48.810;8.872;2023-09-30T10:29:53;97585.91;;;24.98;50.52
3697;BME280;60662;48.810;8.872;2023-09-30T10:32:17;97573.09;;;26.38;48.01
3697;BME280;60662;48.810;8.872;2023-09-30T10:33:19;97570.81;;;26.06;48.52
3697;BME280;60662;48.810;8.872;2023-09-30T10:34:21;97570.94;;;24.44;51.10
3697;BME280;60662;48.810;8.872;2023-09-30T10:36:35;97569.22;;;24.74;51.68
3697;BME280;60662;48.810;8.872;2023-09-30T10:37:39;97571.91;;;25.35;51.60
3697;BME280;60662;48.810;8.872;2023-09-30T10:38:40;97578.44;;;25.01;51.74
3697;BME280;60662;48.810;8.872;2023-09-30T10:39:58;97575.75;;;25.42;50.83
3697;BME280;60662;48.810;8.872;2023-09-30T10:41:00;97572.22;;;25.41;50.60
3697;BME280;60662;48.810;8.872;2023-09-30T10:42:03;97569.25;;;25.54;50.91
3697;BME280;60662;48.810;8.872;2023-09-30T10:43:29;97574.00;;;27.50;46.27
3697;BME280;60662;48.810;8.872;2023-09-30T10:44:32;97560.66;;;27.13;46.86
3697;BME280;60662;48.810;8.872;2023-09-30T10:46:42;97570.22;;;28.24;46.45
3697;BME280;60662;48.810;8.872;2023-09-30T10:47:43;97572.91;;;28.24;45.97
3697;BME280;60662;48.810;8.872;2023-09-30T10:48:45;97568.97;;;27.92;46.49
3697;BME280;60662;48.810;8.872;2023-09-30T10:49:49;97569.88;;;28.53;46.03
3697;BME280;60662;48.810;8.872;2023-09-30T10:50:52;97572.06;;;28.49;45.85
3697;BME280;60662;48.810;8.872;2023-09-30T10:51:56;97571.38;;;28.74;44.85
3697;BME280;60662;48.810;8.872;2023-09-30T10:53:03;97563.50;;;28.72;44.72
3697;BME280;60662;48.810;8.872;2023-09-30T10:54:06;97567.13;;;28.10;45.75
3697;BME280;60662;48.810;8.872;2023-09-30T10:55:08;97566.16;;;27.75;46.76
3697;BME280;60662;48.810;8.872;2023-09-30T10:56:10;97571.00;;;26.80;47.96
3697;BME280;60662;48.810;8.872;2023-09-30T10:57:11;97564.00;;;26.21;49.09
3697;BME280;60662;48.810;8.872;2023-09-30T10:58:13;97564.97;;;25.13;51.58
3697;BME280;60662;48.810;8.872;2023-09-30T10:59:25;97554.78;;;26.44;49.67
3697;BME280;60662;48.810;8.872;2023-09-30T11:00:26;97558.34;;;27.46;47.85
3697;BME280;60662;48.810;8.872;2023-09-30T11:01:37;97554.00;;;27.35;47.57
3697;BME280;60662;48.810;8.872;2023-09-30T11:02:51;97552.19;;;27.35;47.53
3697;BME280;60662;48.810;8.872;2023-09-30T11:03:59;97547.59;;;26.44;48.31
3697;BME280;60662;48.810;8.872;2023-09-30T11:05:09;97553.75;;;27.56;46.80
3697;BME280;60662;48.810;8.872;2023-09-30T11:06:12;97550.50;;;27.89;45.73
3697;BME280;60662;48.810;8.872;2023-09-30T11:07:22;97548.47;;;27.64;46.16
3697;BME280;60662;48.810;8.872;2023-09-30T11:08:28;97545.16;;;27.52;46.45
3697;BME280;60662;48.810;8.872;2023-09-30T11:09:33;97549.59;;;27.80;45.39
3697;BME280;60662;48.810;8.872;2023-09-30T11:10:35;97545.84;;;27.73;45.43
3697;BME280;60662;48.810;8.872;2023-09-30T11:11:40;97545.56;;;27.76;45.28
3697;BME280;60662;48.810;8.872;2023-09-30T11:12:57;97543.25;;;28.25;45.36
3697;BME280;60662;48.810;8.872;2023-09-30T11:13:59;97545.00;;;27.72;45.35
3697;BME280;60662;48.810;8.872;2023-09-30T11:15:02;97545.31;;;28.13;45.11
3697;BME280;60662;48.810;8.872;2023-09-30T11:16:04;97547.19;;;28.74;44.75
3697;BME280;60662;48.810;8.872;2023-09-30T11:17:06;97533.34;;;28.34;44.21
3697;BME280;60662;48.810;8.872;2023-09-30T11:18:17;97544.78;;;28.36;44.19
3697;BME280;60662;48.810;8.872;2023-09-30T11:19:19;97545.31;;;28.40;44.29
3697;BME280;60662;48.810;8.872;2023-09-30T11:20:25;97532.84;;;28.99;43.85
3697;BME280;60662;48.810;8.872;2023-09-30T11:21:26;97530.41;;;29.56;43.10
3697;BME280;60662;48.810;8.872;2023-09-30T11:22:29;97533.28;;;29.29;42.78
3697;BME280;60662;48.810;8.872;2023-09-30T11:23:33;97538.06;;;29.17;43.29
3697;BME280;60662;48.810;8.872;2023-09-30T11:24:35;97544.38;;;29.76;42.30
3697;BME280;60662;48.810;8.872;2023-09-30T11:25:38;97540.84;;;29.84;42.06
3697;BME280;60662;48.810;8.872;2023-09-30T11:26:41;97534.41;;;29.27;41.91
3697;BME280;60662;48.810;8.872;2023-09-30T11:27:43;97538.69;;;29.62;42.34
3697;BME280;60662;48.810;8.872;2023-09-30T11:28:44;97543.41;;;28.93;42.01
3697;BME280;60662;48.810;8.872;2023-09-30T11:29:49;97539.06;;;29.16;42.09
3697;BME280;60662;48.810;8.872;2023-09-30T11:30:58;97535.19;;;27.27;44.78
3697;BME280;60662;48.810;8.872;2023-09-30T11:32:00;97531.38;;;26.46;46.79
3697;BME280;60662;48.810;8.872;2023-09-30T11:33:04;97530.09;;;26.12;45.99
3697;BME280;60662;48.810;8.872;2023-09-30T11:34:06;97539.06;;;26.59;47.21
3697;BME280;60662;48.810;8.872;2023-09-30T11:35:09;97540.19;;;26.94;46.27
3697;BME280;60662;48.810;8.872;2023-09-30T11:36:12;97538.38;;;28.02;44.04
3697;BME280;60662;48.810;8.872;2023-09-30T11:37:16;97530.84;;;26.98;45.99
3697;BME280;60662;48.810;8.872;2023-09-30T11:38:18;97538.03;;;27.61;45.19
3697;BME280;60662;48.810;8.872;2023-09-30T11:39:27;97533.16;;;28.27;44.09
3697;BME280;60662;48.810;8.872;2023-09-30T11:40:29;97537.41;;;29.15;42.60
3697;BME280;60662;48.810;8.872;2023-09-30T11:41:40;97536.97;;;29.37;42.31
3697;BME280;60662;48.810;8.872;2023-09-30T11:43:09;97538.16;;;29.51;41.10
3697;BME280;60662;48.810;8.872;2023-09-30T11:44:12;97531.72;;;28.41;43.01
3697;BME280;60662;48.810;8.872;2023-09-30T11:45:22;97539.03;;;27.78;43.79
3697;BME280;60662;48.810;8.872;2023-09-30T11:46:24;97526.66;;;27.85;43.81
3697;BME280;60662;48.810;8.872;2023-09-30T11:47:29;97534.63;;;27.23;43.51
3697;BME280;60662;48.810;8.872;2023-09-30T11:48:37;97522.88;;;26.60;45.11
3697;BME280;60662;48.810;8.872;2023-09-30T11:49:40;97530.91;;;27.34;44.06
3697;BME280;60662;48.810;8.872;2023-09-30T11:50:48;97527.50;;;28.30;43.05
3697;BME280;60662;48.810;8.872;2023-09-30T11:51:50;97524.91;;;28.55;41.89
3697;BME280;60662;48.810;8.872;2023-09-30T11:52:52;97521.53;;;27.74;42.63
3697;BME280;60662;48.810;8.872;2023-09-30T11:53:54;97527.16;;;28.07;42.68
3697;BME280;60662;48.810;8.872;2023-09-30T11:54:55;97526.44;;;28.58;42.03
3697;BME280;60662;48.810;8.872;2023-09-30T11:55:59;97523.56;;;27.98;42.03
3697;BME280;60662;48.810;8.872;2023-09-30T11:57:01;97529.16;;;28.66;41.30
3697;BME280;60662;48.810;8.872;2023-09-30T11:58:03;97529.31;;;27.41;42.05
3697;BME280;60662;48.810;8.872;2023-09-30T11:59:04;97522.00;;;27.15;42.83
3697;BME280;60662;48.810;8.872;2023-09-30T12:00:06;97528.84;;;26.44;43.73
3697;BME280;60662;48.810;8.872;2023-09-30T12:01:14;97527.81;;;27.11;42.85
3697;BME280;60662;48.810;8.872;2023-09-30T12:02:17;97533.91;;;26.10;44.55
3697;BME280;60662;48.810;8.872;2023-09-30T12:03:19;97534.81;;;26.76;44.65
3697;BME280;60662;48.810;8.872;2023-09-30T12:04:22;97536.03;;;26.81;43.94
3697;BME280;60662;48.810;8.872;2023-09-30T12:05:23;97525.91;;;26.75;44.51
3697;BME280;60662;48.810;8.872;2023-09-30T12:06:25;97529.09;;;26.03;45.60
3697;BME280;60662;48.810;8.872;2023-09-30T12:07:26;97524.72;;;26.02;45.95
3697;BME280;60662;48.810;8.872;2023-09-30T12:08:28;97523.75;;;25.94;45.89
3697;BME280;60662;48.810;8.872;2023-09-30T12:09:30;97531.69;;;26.43;45.13
3697;BME280;60662;48.810;8.872;2023-09-30T12:10:33;97528.03;;;26.99;44.22
3697;BME280;60662;48.810;8.872;2023-09-30T12:11:34;97526.88;;;27.48;43.58
3697;BME280;60662;48.810;8.872;2023-09-30T12:12:35;97523.47;;;27.28;43.93
3697;BME280;60662;48.810;8.872;2023-09-30T12:13:37;97521.41;;;27.21;45.17
3697;BME280;60662;48.810;8.872;2023-09-30T12:14:39;97516.97;;;27.12;45.48
3697;BME280;60662;48.810;8.872;2023-09-30T12:15:42;97528.34;;;27.32;45.18
3697;BME280;60662;48.810;8.872;2023-09-30T12:16:43;97519.09;;;27.09;45.68
3697;BME280;60662;48.810;8.872;2023-09-30T12:17:49;97529.78;;;26.63;46.34
3697;BME280;60662;48.810;8.872;2023-09-30T12:18:51;97524.91;;;25.22;48.74
3697;BME280;60662;48.810;8.872;2023-09-30T12:19:52;97529.38;;;24.92;48.85
3697;BME280;60662;48.810;8.872;2023-09-30T12:20:54;97526.13;;;24.99;49.15
3697;BME280;60662;48.810;8.872;2023-09-30T12:21:55;97532.47;;;24.57;49.95
3697;BME280;60662;48.810;8.872;2023-09-30T12:22:57;97526.72;;;25.02;49.15
3697;BME280;60662;48.810;8.872;2023-09-30T12:23:58;97519.97;;;24.98;48.97
3697;BME280;60662;48.810;8.872;2023-09-30T12:25:00;97526.84;;;24.19;49.48
3697;BME280;60662;48.810;8.872;2023-09-30T12:26:02;97520.84;;;23.96;50.57
3697;BME280;60662;48.810;8.872;2023-09-30T12:27:15;97525.44;;;23.94;50.63
3697;BME280;60662;48.810;8.872;2023-09-30T12:28:18;97518.03;;;24.28;50.20
3697;BME280;60662;48.810;8.872;2023-09-30T12:29:21;97516.06;;;24.00;50.65
3697;BME280;60662;48.810;8.872;2023-09-30T12:30:23;97524.97;;;24.10;50.70
3697;BME280;60662;48.810;8.872;2023-09-30T12:31:25;97525.44;;;24.15;50.51
3697;BME280;60662;48.810;8.872;2023-09-30T12:32:27;97523.53;;;25.38;48.48
3697;BME280;60662;48.810;8.872;2023-09-30T12:33:30;97519.66;;;26.09;47.11
3697;BME280;60662;48.810;8.872;2023-09-30T12:34:32;97520.13;;;26.70;46.24
3697;BME280;60662;48.810;8.872;2023-09-30T12:35:34;97520.84;;;27.18;45.16
3697;BME280;60662;48.810;8.872;2023-09-30T12:36:36;97517.03;;;27.02;45.18
3697;BME280;60662;48.810;8.872;2023-09-30T12:37:38;97522.00;;;27.15;45.11
3697;BME280;60662;48.810;8.872;2023-09-30T12:38:39;97523.63;;;26.80;45.35
3697;BME280;60662;48.810;8.872;2023-09-30T12:39:41;97514.88;;;27.24;44.58
3697;BME280;60662;48.810;8.872;2023-09-30T12:40:43;97516.81;;;27.14;44.88
3697;BME280;60662;48.810;8.872;2023-09-30T12:41:44;97516.00;;;27.49;44.35
3697;BME280;60662;48.810;8.872;2023-09-30T12:42:47;97516.41;;;27.09;44.85
3697;BME280;60662;48.810;8.872;2023-09-30T12:43:49;97520.81;;;26.82;45.09
3697;BME280;60662;48.810;8.872;2023-09-30T12:44:50;97513.59;;;26.54;45.06
3697;BME280;60662;48.810;8.872;2023-09-30T12:45:52;97513.84;;;26.89;45.32
3697;BME280;60662;48.810;8.872;2023-09-30T12:46:53;97513.97;;;26.60;45.70
3697;BME280;60662;48.810;8.872;2023-09-30T12:47:56;97516.59;;;26.79;45.11
3697;BME280;60662;48.810;8.872;2023-09-30T12:48:58;97514.81;;;27.34;44.72
3697;BME280;60662;48.810;8.872;2023-09-30T12:50:00;97518.78;;;27.12;44.53
3697;BME280;60662;48.810;8.872;2023-09-30T12:51:01;97529.03;;;26.70;44.90
3697;BME280;60662;48.810;8.872;2023-09-30T12:52:05;97523.66;;;25.66;46.28
3697;BME280;60662;48.810;8.872;2023-09-30T12:53:07;97516.75;;;25.83;46.36